Time;durP1;ratioP1;P1;durP2;ratioP2;P2;SDS_P1;SDS_P2;PMS_P1;PMS_P2;Temp;Humidity;BMP_temperature;BMP_pressure;BME280_temperature;BME280_humidity;BME280_pressure;Samples;Min_cycle;Max_cycle;Signal;HPM_P1;HPM_P2
2022/09/06 00:01:36;;;;;;;2.67;1.38;;;;;;;15.37;100.00;100698.09;5045938;28;20136;-57
2022/09/06 00:04:01;;;;;;;2.05;0.98;;;;;;;15.38;100.00;100697.06;5043343;28;20116;-55
2022/09/06 00:06:26;;;;;;;1.75;0.43;;;;;;;15.39;100.00;100701.38;5037038;28;20068;-56
2022/09/06 00:08:52;;;;;;;0.50;0.50;;;;;;;15.37;100.00;100699.97;5049647;28;20051;-57
2022/09/06 00:11:17;;;;;;;1.33;0.95;;;;;;;15.32;100.00;100697.94;5035313;28;20162;-57
2022/09/06 00:13:43;;;;;;;0.77;0.68;;;;;;;15.27;100.00;100700.44;5030337;28;20045;-57
2022/09/06 00:16:15;;;;;;;1.08;0.90;;;;;;;15.20;100.00;100700.47;5049453;28;20029;-56
2022/09/06 00:18:41;;;;;;;1.00;1.00;;;;;;;15.17;100.00;100700.09;5030493;28;20060;-55
2022/09/06 00:21:22;;;;;;;0.95;0.40;;;;;;;15.16;100.00;100698.47;5049120;28;20053;-57
2022/09/06 00:23:47;;;;;;;4.00;0.50;;;;;;;15.12;100.00;100703.41;5037773;28;20040;-56
2022/09/06 00:26:13;;;;;;;1.70;1.10;;;;;;;15.14;100.00;100695.19;5032430;28;20053;-57
2022/09/06 00:28:39;;;;;;;3.85;1.20;;;;;;;15.15;100.00;100697.63;5032402;28;20026;-56
2022/09/06 00:31:16;;;;;;;0.85;0.68;;;;;;;15.11;100.00;100692.97;5031055;28;20079;-57
2022/09/06 00:33:42;;;;;;;0.60;0.60;;;;;;;15.01;100.00;100685.41;5039259;28;20032;-57
2022/09/06 00:36:08;;;;;;;0.63;0.45;;;;;;;14.89;100.00;100687.13;5037547;28;20033;-57
2022/09/06 00:38:34;;;;;;;0.80;0.80;;;;;;;14.81;100.00;100683.66;5037537;28;20065;-58
2022/09/06 00:40:59;;;;;;;0.20;0.20;;;;;;;14.74;100.00;100682.06;5039308;28;20063;-58
2022/09/06 00:43:25;;;;;;;2.17;0.68;;;;;;;14.70;100.00;100694.22;5032128;28;20043;-58
2022/09/06 00:45:51;;;;;;;1.02;0.60;;;;;;;14.61;100.00;100693.63;5034694;28;20034;-59
2022/09/06 00:48:17;;;;;;;1.17;0.40;;;;;;;14.58;100.00;100689.53;5041024;28;20030;-58
2022/09/06 00:50:44;;;;;;;3.42;0.52;;;;;;;14.53;100.00;100692.03;5036685;28;20032;-58
2022/09/06 00:53:09;;;;;;;2.20;0.63;;;;;;;14.52;100.00;100685.03;5043473;28;20033;-58
2022/09/06 00:55:35;;;;;;;1.90;0.45;;;;;;;14.52;100.00;100677.00;5037208;28;20036;-58
2022/09/06 00:58:01;;;;;;;1.70;0.30;;;;;;;14.43;100.00;100683.63;5029555;28;20049;-55
2022/09/06 01:00:26;;;;;;;1.95;0.80;;;;;;;14.35;100.00;100697.19;5039295;28;20347;-60
2022/09/06 01:02:52;;;;;;;0.85;0.60;;;;;;;14.31;100.00;100690.66;5034447;28;20071;-59
2022/09/06 01:05:21;;;;;;;1.27;0.80;;;;;;;14.23;100.00;100704.22;5035987;28;20060;-59
2022/09/06 01:07:53;;;;;;;0.70;0.47;;;;;;;14.19;100.00;100704.63;5036510;28;20127;-58
2022/09/06 01:10:45;;;;;;;2.33;0.73;;;;;;;14.17;100.00;100701.38;5035665;28;20028;-59
2022/09/06 01:13:20;;;;;;;;;;;;;;;14.15;100.00;100714.06;4998073;28;1146071;-59
2022/09/06 01:16:02;;;;;;;1.27;0.68;;;;;;;14.05;100.00;100697.69;5042822;28;20416;-58
2022/09/06 01:18:27;;;;;;;1.85;1.48;;;;;;;13.96;100.00;100696.25;5028502;28;20044;-57
2022/09/06 01:21:14;;;;;;;0.47;0.40;;;;;;;13.92;100.00;100695.06;5032437;28;20033;-58
2022/09/06 01:24:00;;;;;;;3.97;0.52;;;;;;;13.85;100.00;100691.56;5040292;28;20033;-58
2022/09/06 01:26:52;;;;;;;1.30;0.52;;;;;;;13.74;100.00;100685.84;5036828;28;20398;-57
2022/09/06 01:29:32;;;;;;;0.68;0.35;;;;;;;13.67;100.00;100695.69;5031962;28;20382;-59
2022/09/06 01:32:10;;;;;;;0.70;0.60;;;;;;;13.64;100.00;100688.09;5039870;28;20028;-58
2022/09/06 01:34:52;;;;;;;5.88;0.60;;;;;;;13.61;100.00;100685.88;5028520;28;20057;-59
2022/09/06 01:37:20;;;;;;;5.40;0.52;;;;;;;13.56;100.00;100682.19;5036315;28;20112;-58
2022/09/06 01:39:45;;;;;;;0.88;0.50;;;;;;;13.50;100.00;100681.13;5045212;28;20086;-57
2022/09/06 01:42:17;;;;;;;0.85;0.65;;;;;;;13.47;100.00;100681.53;5037181;28;20029;-59
2022/09/06 01:44:52;;;;;;;0.95;0.60;;;;;;;13.48;100.00;100685.88;5037830;28;20024;-59
2022/09/06 01:47:17;;;;;;;2.10;0.60;;;;;;;13.55;100.00;100686.66;5036429;28;20033;-59
2022/09/06 01:49:54;;;;;;;0.60;0.60;;;;;;;13.56;100.00;100674.19;5038479;28;20529;-58
2022/09/06 01:52:47;;;;;;;1.38;0.22;;;;;;;13.56;100.00;100676.84;5037331;28;20410;-58
2022/09/06 01:55:46;;;;;;;1.25;0.40;;;;;;;13.57;100.00;100673.97;5043854;28;20044;-58
2022/09/06 01:58:50;;;;;;;0.32;0.32;;;;;;;13.56;100.00;100674.19;5026502;28;20041;-58
2022/09/06 02:01:37;;;;;;;0.13;0.13;;;;;;;13.52;100.00;100681.75;5040483;28;20071;-58
2022/09/06 02:04:33;;;;;;;1.33;0.43;;;;;;;13.52;100.00;100676.44;5039007;28;20030;-58
2022/09/06 02:07:06;;;;;;;0.60;0.40;;;;;;;13.53;100.00;100668.25;5033999;28;20041;-58
2022/09/06 02:09:39;;;;;;;0.50;0.45;;;;;;;13.49;100.00;100682.97;5039860;28;20417;-56
2022/09/06 02:12:07;;;;;;;0.68;0.68;;;;;;;13.47;100.00;100669.03;5044003;28;20045;-57
2022/09/06 02:14:39;;;;;;;6.85;0.65;;;;;;;13.49;100.00;100672.31;5037475;28;20102;-59
2022/09/06 02:17:07;;;;;;;1.30;1.20;;;;;;;13.53;100.00;100670.09;5043410;28;20037;-59
2022/09/06 02:19:42;;;;;;;0.95;0.88;;;;;;;13.60;100.00;100662.88;5042921;28;20025;-57
2022/09/06 02:22:11;;;;;;;1.70;1.35;;;;;;;13.64;100.00;100664.13;5038937;28;20123;-59
2022/09/06 02:24:39;;;;;;;1.02;0.95;;;;;;;13.67;100.00;100653.06;5042286;28;20474;-59
2022/09/06 02:27:05;;;;;;;1.48;0.90;;;;;;;13.63;100.00;100649.19;5042428;28;20261;-57
2022/09/06 02:29:32;;;;;;;4.60;0.90;;;;;;;13.59;100.00;100650.59;5040064;28;20524;-57
2022/09/06 02:32:03;;;;;;;1.25;1.15;;;;;;;13.56;100.00;100656.34;5041339;28;20033;-59
2022/09/06 02:34:28;;;;;;;1.40;0.80;;;;;;;13.56;100.00;100656.34;5035548;28;20037;-59
2022/09/06 02:36:54;;;;;;;1.27;1.02;;;;;;;13.55;100.00;100662.69;5045612;28;20037;-59
2022/09/06 02:39:20;;;;;;;0.77;0.77;;;;;;;13.53;100.00;100654.09;5045913;28;20100;-56
2022/09/06 02:41:46;;;;;;;3.20;1.38;;;;;;;13.52;100.00;100661.25;5044580;28;20166;-60
2022/09/06 02:44:12;;;;;;;1.65;1.10;;;;;;;13.53;100.00;100662.09;5041223;28;20067;-59
2022/09/06 02:46:38;;;;;;;1.88;1.05;;;;;;;13.56;100.00;100667.00;5032809;28;20037;-59
2022/09/06 02:49:03;;;;;;;3.55;2.10;;;;;;;13.62;100.00;100655.50;5045610;28;21505;-59
2022/09/06 02:51:29;;;;;;;4.00;1.52;;;;;;;13.66;100.00;100646.09;5028947;28;20490;-60
2022/09/06 02:53:55;;;;;;;1.95;1.70;;;;;;;13.64;100.00;100648.16;5036604;28;20045;-58
2022/09/06 02:56:21;;;;;;;1.88;1.77;;;;;;;13.59;100.00;100649.78;5045742;28;20108;-59
2022/09/06 02:58:47;;;;;;;6.25;2.03;;;;;;;13.57;100.00;100644.66;5041203;28;20017;-59
2022/09/06 03:01:12;;;;;;;3.30;2.28;;;;;;;13.60;100.00;100638.09;5047710;28;20600;-59
2022/09/06 03:03:37;;;;;;;5.35;2.45;;;;;;;13.57;100.00;100633.19;5038052;28;20100;-60
2022/09/06 03:06:03;;;;;;;2.38;2.17;;;;;;;13.50;100.00;100627.84;5032033;28;20044;-57
2022/09/06 03:08:32;;;;;;;2.03;1.70;;;;;;;13.47;100.00;100617.63;5035295;28;20029;-59
2022/09/06 03:10:58;;;;;;;3.97;1.80;;;;;;;13.43;100.00;100619.88;5026782;28;20034;-59
2022/09/06 03:13:24;;;;;;;2.88;2.53;;;;;;;13.36;100.00;100623.59;5045748;28;20285;-60
2022/09/06 03:15:55;;;;;;;2.50;2.33;;;;;;;13.33;100.00;100618.66;5038841;28;20028;-59
2022/09/06 03:18:21;;;;;;;3.45;2.33;;;;;;;13.28;100.00;100633.41;5044857;28;20024;-59
2022/09/06 03:20:48;;;;;;;2.70;2.50;;;;;;;13.24;100.00;100631.31;5044012;28;20026;-59
2022/09/06 03:23:14;;;;;;;2.65;2.30;;;;;;;13.29;100.00;100631.56;5040575;28;20087;-60
2022/09/06 03:25:41;;;;;;;4.70;2.20;;;;;;;13.27;100.00;100637.09;5037704;28;20025;-58
2022/09/06 03:28:06;;;;;;;4.25;2.15;;;;;;;13.21;100.00;100637.88;5045589;28;20029;-59
2022/09/06 03:30:31;;;;;;;4.22;2.78;;;;;;;13.17;100.00;100642.00;5043333;28;20163;-60
2022/09/06 03:32:58;;;;;;;4.28;2.55;;;;;;;13.20;100.00;100641.56;5034970;28;20038;-58
2022/09/06 03:35:24;;;;;;;2.83;2.63;;;;;;;13.27;100.00;100637.09;5042462;28;20037;-58
2022/09/06 03:37:49;;;;;;;5.97;3.35;;;;;;;13.39;100.00;100623.16;5035132;28;20064;-59
2022/09/06 03:40:15;;;;;;;4.18;3.15;;;;;;;13.50;100.00;100627.84;5036450;28;20444;-59
2022/09/06 03:42:40;;;;;;;4.68;3.70;;;;;;;13.53;100.00;100619.47;5036442;28;20124;-57
2022/09/06 03:45:06;;;;;;;4.05;3.65;;;;;;;13.53;100.00;100622.16;5026641;28;20037;-59
2022/09/06 03:47:32;;;;;;;3.75;2.90;;;;;;;13.49;100.00;100612.91;5032798;28;20429;-59
2022/09/06 03:49:57;;;;;;;5.80;2.95;;;;;;;13.44;100.00;100618.84;5037039;28;20037;-60
2022/09/06 03:52:22;;;;;;;3.85;2.72;;;;;;;13.36;100.00;100619.06;5040610;28;20032;-59
2022/09/06 03:54:47;;;;;;;3.40;2.92;;;;;;;13.35;100.00;100611.31;5029612;28;20378;-59
2022/09/06 03:57:13;;;;;;;7.03;3.15;;;;;;;13.36;100.00;100602.28;5031753;28;20028;-59
2022/09/06 03:59:38;;;;;;;4.40;4.00;;;;;;;13.31;100.00;100598.38;5037024;28;20425;-59
2022/09/06 04:02:05;;;;;;;5.30;3.92;;;;;;;13.26;100.00;100598.19;5027642;28;20386;-59
2022/09/06 04:04:30;;;;;;;9.68;3.88;;;;;;;13.24;100.00;100594.03;5044076;28;20029;-58
2022/09/06 04:06:56;;;;;;;4.95;3.45;;;;;;;13.20;100.00;100591.00;5036655;28;20504;-59
2022/09/06 04:09:21;;;;;;;4.07;3.65;;;;;;;13.20;100.00;100596.31;5041085;28;20442;-60
2022/09/06 04:11:46;;;;;;;7.95;4.30;;;;;;;13.22;100.00;100594.28;5036930;28;20451;-58
2022/09/06 04:14:12;;;;;;;6.65;4.32;;;;;;;13.20;100.00;100588.31;5031761;28;20037;-59
2022/09/06 04:16:37;;;;;;;7.65;4.68;;;;;;;13.16;100.00;100597.72;5047548;28;20028;-59
2022/09/06 04:19:03;;;;;;;5.55;4.95;;;;;;;13.16;100.00;100587.09;5035335;28;20040;-54
2022/09/06 04:21:29;;;;;;;7.55;3.92;;;;;;;13.17;100.00;100590.59;5045354;28;20037;-58
2022/09/06 04:23:54;;;;;;;8.63;4.45;;;;;;;13.13;100.00;100584.03;5037679;28;20040;-60
2022/09/06 04:26:19;;;;;;;5.55;4.07;;;;;;;13.07;100.00;100583.00;5042095;28;20238;-60
2022/09/06 04:28:45;;;;;;;7.85;4.60;;;;;;;12.99;100.00;100580.56;5039633;28;20473;-60
2022/09/06 04:31:10;;;;;;;4.45;3.40;;;;;;;12.96;100.00;100575.63;5032434;28;20397;-60
2022/09/06 04:33:37;;;;;;;7.88;4.00;;;;;;;12.91;100.00;100572.75;5033420;28;20541;-59
2022/09/06 04:36:05;;;;;;;5.32;3.10;;;;;;;12.86;100.00;100568.06;5039243;28;20037;-60
2022/09/06 04:38:35;;;;;;;5.70;2.92;;;;;;;12.84;100.00;100565.59;5041919;28;20033;-60
2022/09/06 04:41:01;;;;;;;5.93;2.38;;;;;;;12.82;100.00;100572.94;5038137;28;20116;-59
2022/09/06 04:43:26;;;;;;;3.38;3.13;;;;;;;12.77;100.00;100582.56;5039469;28;20041;-60
2022/09/06 04:45:51;;;;;;;1.70;1.60;;;;;;;12.67;100.00;100590.94;5037820;28;20056;-60
2022/09/06 04:48:17;;;;;;;2.25;2.13;;;;;;;12.62;100.00;100585.41;5036997;28;20402;-60
2022/09/06 04:50:42;;;;;;;1.88;1.80;;;;;;;12.57;100.00;100590.50;5035258;28;20379;-60
2022/09/06 04:53:09;;;;;;;2.13;1.90;;;;;;;12.63;100.00;100590.53;5038581;28;20038;-59
2022/09/06 04:55:36;;;;;;;2.58;2.38;;;;;;;12.69;100.00;100591.56;5033944;28;20026;-60
2022/09/06 04:58:02;;;;;;;4.47;2.83;;;;;;;12.68;100.00;100587.28;5032880;28;20033;-58
2022/09/06 05:00:30;;;;;;;4.65;3.03;;;;;;;12.68;100.00;100579.28;5043236;28;20059;-59
2022/09/06 05:02:56;;;;;;;3.25;2.95;;;;;;;12.67;100.00;100572.31;5039441;28;20073;-61
2022/09/06 05:05:21;;;;;;;4.53;4.13;;;;;;;12.61;100.00;100578.47;5045537;28;20052;-59
2022/09/06 05:07:47;;;;;;;4.95;3.30;;;;;;;12.57;100.00;100579.88;5035206;28;20060;-59
2022/09/06 05:10:12;;;;;;;3.17;2.88;;;;;;;12.49;100.00;100582.72;5032318;28;20036;-60
2022/09/06 05:12:38;;;;;;;4.75;3.40;;;;;;;12.43;100.00;100579.03;5035870;28;20049;-60
2022/09/06 05:15:03;;;;;;;7.15;4.60;;;;;;;12.50;100.00;100568.41;5030195;28;20033;-60
2022/09/06 05:17:29;;;;;;;5.95;4.82;;;;;;;12.54;100.00;100566.97;5033184;28;20048;-59
2022/09/06 05:19:54;;;;;;;5.53;4.00;;;;;;;12.49;100.00;100564.09;5038148;28;20040;-59
2022/09/06 05:22:20;;;;;;;6.38;4.03;;;;;;;12.46;100.00;100564.50;5032465;28;20041;-60
2022/09/06 05:24:45;;;;;;;6.22;4.88;;;;;;;12.54;100.00;100569.63;5034067;28;20108;-57
2022/09/06 05:27:11;;;;;;;7.30;4.25;;;;;;;12.56;100.00;100575.56;5033216;28;20068;-60
2022/09/06 05:29:37;;;;;;;9.05;4.13;;;;;;;12.61;100.00;100567.81;5031782;28;21488;-60
2022/09/06 05:32:02;;;;;;;5.18;4.63;;;;;;;12.71;100.00;100568.25;5032838;28;20033;-59
2022/09/06 05:34:28;;;;;;;11.68;6.00;;;;;;;12.82;100.00;100572.13;5029199;28;20120;-60
2022/09/06 05:36:53;;;;;;;4.57;4.00;;;;;;;12.90;100.00;100574.59;5034110;28;20028;-60
2022/09/06 05:39:20;;;;;;;8.18;4.65;;;;;;;12.99;100.00;100567.25;5034954;28;20068;-60
2022/09/06 05:41:45;;;;;;;8.38;5.85;;;;;;;13.09;100.00;100581.78;5030492;28;20029;-58
2022/09/06 05:44:11;;;;;;;7.88;5.40;;;;;;;13.39;100.00;100577.88;5045443;28;20025;-60
2022/09/06 05:46:44;;;;;;;11.30;5.65;;;;;;;13.57;100.00;100583.38;5027022;28;20462;-58
2022/09/06 05:49:10;;;;;;;13.88;7.28;;;;;;;13.70;100.00;100586.03;5048675;28;20029;-60
2022/09/06 05:51:35;;;;;;;10.80;7.25;;;;;;;13.82;100.00;100591.53;5046173;28;20048;-59
2022/09/06 05:54:01;;;;;;;9.60;7.78;;;;;;;13.95;100.00;100606.66;5045668;28;20040;-63
2022/09/06 05:56:27;;;;;;;13.65;6.72;;;;;;;14.06;100.00;100594.53;5034955;28;20031;-59
2022/09/06 05:58:52;;;;;;;7.47;5.18;;;;;;;14.14;100.00;100600.44;5037053;28;20021;-64
2022/09/06 06:01:20;;;;;;;7.80;6.70;;;;;;;14.19;100.00;100597.94;5036896;28;20068;-63
2022/09/06 06:03:57;;;;;;;10.32;6.40;;;;;;;14.29;100.00;100602.03;5037148;28;20028;-58
2022/09/06 06:06:25;;;;;;;9.93;5.90;;;;;;;14.36;100.00;100610.81;5037081;28;20021;-61
2022/09/06 06:08:50;;;;;;;6.63;5.90;;;;;;;14.40;100.00;100614.69;5029218;28;20021;-65
2022/09/06 06:11:16;;;;;;;13.95;5.43;;;;;;;14.48;100.00;100617.13;5027733;28;20124;-64
2022/09/06 06:13:42;;;;;;;11.95;6.25;;;;;;;14.55;100.00;100617.91;5035520;28;20048;-61
2022/09/06 06:16:10;;;;;;;10.40;5.32;;;;;;;14.61;100.00;100627.75;5034131;28;20474;-61
2022/09/06 06:18:36;;;;;;;7.18;5.57;;;;;;;14.67;100.00;100619.94;5032176;28;20029;-63
2022/09/06 06:21:13;;;;;;;7.72;5.85;;;;;;;14.71;100.00;100615.78;5036536;28;20033;-58
2022/09/06 06:23:39;;;;;;;7.78;5.25;;;;;;;14.76;100.00;100613.28;5035412;28;20029;-64
2022/09/06 06:26:06;;;;;;;6.40;4.78;;;;;;;14.75;100.00;100612.47;5034971;28;20025;-61
2022/09/06 06:28:31;;;;;;;6.43;5.00;;;;;;;14.79;100.00;100611.03;5034335;28;20056;-61
2022/09/06 06:30:57;;;;;;;9.35;5.30;;;;;;;14.79;100.00;100618.19;5037379;28;20490;-62
2022/09/06 06:33:22;;;;;;;7.35;4.97;;;;;;;14.81;100.00;100610.78;5038129;28;21006;-64
2022/09/06 06:36:01;;;;;;;9.30;5.32;;;;;;;14.79;100.00;100616.34;5041628;28;20498;-64
2022/09/06 06:38:30;;;;;;;9.48;4.90;;;;;;;14.79;100.00;100618.19;5032124;28;20074;-65
2022/09/06 06:40:56;;;;;;;9.25;6.25;;;;;;;14.79;100.00;100619.03;5026381;28;20037;-63
2022/09/06 06:43:21;;;;;;;6.97;4.40;;;;;;;14.77;100.00;100610.41;5029038;28;20045;-56
2022/09/06 06:45:48;;;;;;;8.60;4.20;;;;;;;14.74;100.00;100608.19;5033293;28;20030;-65
2022/09/06 06:48:14;;;;;;;9.43;5.00;;;;;;;14.77;100.00;100609.59;5035650;28;20042;-64
2022/09/06 06:50:39;;;;;;;9.80;4.68;;;;;;;14.77;100.00;100609.59;5027043;28;20025;-62
2022/09/06 06:53:05;;;;;;;7.03;4.82;;;;;;;14.79;100.00;100612.84;5031077;28;20022;-63
2022/09/06 06:55:30;;;;;;;7.78;4.88;;;;;;;14.85;100.00;100622.69;5026694;28;20037;-61
2022/09/06 06:57:58;;;;;;;6.78;4.72;;;;;;;14.90;100.00;100622.84;5022835;28;20310;-63
2022/09/06 07:00:24;;;;;;;9.25;4.32;;;;;;;14.94;100.00;100626.72;5024009;28;20029;-62
2022/09/06 07:02:49;;;;;;;6.78;3.92;;;;;;;15.02;100.00;100618.47;5027368;28;20029;-63
2022/09/06 07:05:15;;;;;;;5.38;3.70;;;;;;;15.10;100.00;100624.53;5036393;28;20119;-62
2022/09/06 07:07:40;;;;;;;7.57;4.30;;;;;;;15.19;100.00;100623.25;5029155;28;20172;-64
2022/09/06 07:10:05;;;;;;;6.72;3.75;;;;;;;15.26;100.00;100632.84;5031665;28;20402;-64
2022/09/06 07:12:31;;;;;;;9.48;4.90;;;;;;;15.31;100.00;100642.88;5030090;28;20139;-64
2022/09/06 07:14:56;;;;;;;8.65;4.72;;;;;;;15.26;100.00;100643.53;5025743;28;20024;-61
2022/09/06 07:17:22;;;;;;;10.10;4.97;;;;;;;15.29;100.00;100644.13;5030549;28;20497;-60
2022/09/06 07:19:47;;;;;;;7.68;4.63;;;;;;;15.37;100.00;100652.69;5031595;28;20431;-64
2022/09/06 07:22:12;;;;;;;8.52;4.13;;;;;;;15.44;100.00;100653.47;5033681;28;20029;-63
2022/09/06 07:24:38;;;;;;;6.40;4.00;;;;;;;15.51;100.00;100653.38;5033384;28;20118;-63
2022/09/06 07:27:03;;;;;;;5.45;4.10;;;;;;;15.60;100.00;100664.63;5026201;28;20478;-63
2022/09/06 07:29:29;;;;;;;7.28;3.25;;;;;;;15.76;100.00;100652.59;5030985;28;20087;-65
2022/09/06 07:31:56;;;;;;;6.50;2.95;;;;;;;15.86;100.00;100648.34;5033899;28;20029;-61
2022/09/06 07:34:23;;;;;;;9.60;4.00;;;;;;;16.00;100.00;100656.22;5030149;28;20021;-64
2022/09/06 07:36:55;;;;;;;11.23;4.15;;;;;;;16.03;100.00;100653.09;5032408;28;20028;-64
2022/09/06 07:39:21;;;;;;;8.13;4.68;;;;;;;16.06;100.00;100652.69;5033958;28;20061;-63
2022/09/06 07:41:47;;;;;;;10.27;4.00;;;;;;;16.11;100.00;100652.84;5031810;28;20501;-64
2022/09/06 07:44:13;;;;;;;4.88;3.05;;;;;;;16.16;100.00;100650.31;5032139;28;20037;-61
2022/09/06 07:46:38;;;;;;;8.15;3.20;;;;;;;16.20;100.00;100651.47;5037735;28;20030;-64
2022/09/06 07:49:04;;;;;;;3.60;1.80;;;;;;;16.25;100.00;100648.94;5035071;28;20053;-61
2022/09/06 07:51:29;;;;;;;5.28;1.67;;;;;;;16.26;100.00;100650.59;5044563;28;20055;-61
2022/09/06 07:53:55;;;;;;;6.45;2.83;;;;;;;16.38;100.00;100649.84;5036722;28;20029;-63
2022/09/06 07:56:21;;;;;;;9.10;3.50;;;;;;;16.48;100.00;100639.41;5043545;28;20516;-60
2022/09/06 07:58:47;;;;;;;6.75;2.38;;;;;;;16.52;100.00;100638.75;5036385;28;20364;-62
2022/09/06 08:01:14;;;;;;;4.68;2.60;;;;;;;16.57;100.00;100638.88;5046256;28;20025;-63
2022/09/06 08:03:39;;;;;;;4.72;2.17;;;;;;;16.66;100.00;100628.66;5044309;28;20135;-63
2022/09/06 08:06:04;;;;;;;3.45;1.70;;;;;;;16.76;100.00;100628.94;5035732;28;20410;-64
2022/09/06 08:08:30;;;;;;;6.20;3.28;;;;;;;16.87;100.00;100615.84;5031431;28;20515;-63
2022/09/06 08:10:55;;;;;;;4.22;1.40;;;;;;;16.94;100.00;100616.56;5025208;28;20571;-63
2022/09/06 08:13:20;;;;;;;6.38;1.80;;;;;;;17.06;100.00;100611.19;5032859;28;20156;-63
2022/09/06 08:15:46;;;;;;;4.90;1.48;;;;;;;17.15;100.00;100599.13;5031125;28;20497;-61
2022/09/06 08:18:11;;;;;;;4.80;1.02;;;;;;;17.16;100.00;100585.47;5030989;28;20493;-62
2022/09/06 08:20:36;;;;;;;7.68;2.10;;;;;;;17.21;100.00;100592.81;5034046;28;20052;-62
2022/09/06 08:23:08;;;;;;;4.32;1.10;;;;;;;17.36;100.00;100597.72;5032901;28;20037;-63
2022/09/06 08:25:34;;;;;;;6.78;1.20;;;;;;;17.42;100.00;100578.03;5035632;28;20479;-61
2022/09/06 08:27:59;;;;;;;6.68;1.58;;;;;;;17.40;100.00;100580.16;5042933;28;20025;-60
2022/09/06 08:30:26;;;;;;;3.13;0.65;;;;;;;17.23;100.00;100580.81;5043402;28;20272;-61
2022/09/06 08:32:51;;;;;;;3.17;0.73;;;;;;;17.19;100.00;100581.50;5033788;28;20095;-60
2022/09/06 08:35:17;;;;;;;6.25;1.80;;;;;;;17.20;100.00;100583.16;5041182;28;20569;-61
2022/09/06 08:37:42;;;;;;;2.25;1.00;;;;;;;17.18;100.00;100586.06;5045855;28;20029;-61
2022/09/06 08:40:08;;;;;;;2.90;0.68;;;;;;;17.24;100.00;100570.91;5041663;28;20063;-60
2022/09/06 08:42:38;;;;;;;2.63;0.70;;;;;;;17.23;100.00;100591.53;5042897;28;20029;-59
2022/09/06 08:45:08;;;;;;;2.15;0.90;;;;;;;17.27;100.00;100596.44;5040072;28;21500;-55
2022/09/06 08:47:34;;;;;;;10.68;2.08;;;;;;;17.27;100.00;100589.22;5038179;28;20033;-64
2022/09/06 08:50:06;;;;;;;5.68;0.38;;;;;;;17.33;100.00;100590.16;5046443;28;20025;-59
2022/09/06 08:52:50;;;;;;;2.90;0.40;;;;;;;17.34;100.00;100597.94;5043290;28;20033;-56
2022/09/06 08:55:46;;;;;;;3.42;0.30;;;;;;;17.28;100.00;100598.06;5033176;28;20030;-61
2022/09/06 08:58:30;;;;;;;5.13;0.68;;;;;;;17.18;100.00;100587.94;5036680;28;20039;-59
2022/09/06 09:01:01;;;;;;;3.80;0.47;;;;;;;17.14;100.00;100563.47;5038786;28;20038;-62
2022/09/06 09:03:37;;;;;;;3.67;0.53;;;;;;;17.51;100.00;100552.50;5042187;28;20405;-61
2022/09/06 09:06:05;;;;;;;4.68;0.82;;;;;;;17.94;100.00;100551.28;5038074;28;20301;-61
2022/09/06 09:09:05;;;;;;;5.85;1.33;;;;;;;17.90;100.00;100523.31;5033342;28;20056;-60
2022/09/06 09:11:35;;;;;;;2.55;1.25;;;;;;;17.83;100.00;100509.22;5037576;28;20048;-58
2022/09/06 09:14:19;;;;;;;3.20;0.82;;;;;;;17.87;100.00;100521.09;5041337;28;20625;-60
2022/09/06 09:16:44;;;;;;;4.18;1.02;;;;;;;17.98;100.00;100522.91;5041160;28;20158;-57
2022/09/06 09:19:10;;;;;;;4.75;1.23;;;;;;;17.99;100.00;100513.84;5036968;28;20387;-61
2022/09/06 09:21:37;;;;;;;7.78;0.40;;;;;;;18.16;100.00;100518.44;5044113;28;20426;-60
2022/09/06 09:24:06;;;;;;;6.10;1.17;;;;;;;18.30;100.00;100506.31;5043014;28;20036;-61
2022/09/06 09:26:51;;;;;;;6.28;1.70;;;;;;;18.68;100.00;100489.53;5039412;28;20027;-62
2022/09/06 09:29:16;;;;;;;8.88;0.63;;;;;;;18.83;100.00;100464.81;5043718;28;20447;-54
2022/09/06 09:31:48;;;;;;;3.92;0.40;;;;;;;18.92;100.00;100468.72;5037941;28;20116;-52
2022/09/06 09:34:32;;;;;;;;;;;;;;;18.73;100.00;100446.63;5037386;28;20037;-61
2022/09/06 09:37:21;;;;;;;8.40;1.85;;;;;;;18.65;100.00;100463.16;5035587;28;19992;-62
2022/09/06 09:39:48;;;;;;;5.75;1.15;;;;;;;18.66;100.00;100480.06;5043738;28;20040;-61
2022/09/06 09:42:35;;;;;;;2.63;1.77;;;;;;;18.71;100.00;100482.84;5033975;28;20355;-57
2022/09/06 09:45:04;;;;;;;6.80;0.43;;;;;;;18.68;100.00;100478.78;5042096;28;20029;-58
2022/09/06 09:47:32;;;;;;;5.93;0.50;;;;;;;18.59;100.00;100463.34;5042535;28;20492;-51
2022/09/06 09:49:58;;;;;;;7.50;0.50;;;;;;;18.48;100.00;100463.19;5035216;28;20466;-49
2022/09/06 09:52:29;;;;;;;10.15;2.10;;;;;;;18.71;100.00;100474.78;5041926;28;20039;-61
2022/09/06 09:55:00;;;;;;;3.53;0.65;;;;;;;18.77;100.00;100460.44;5033108;28;20036;-50
2022/09/06 09:57:28;;;;;;;4.40;0.40;;;;;;;19.13;100.00;100469.81;5032992;28;20029;-54
2022/09/06 10:00:01;;;;;;;3.63;0.98;;;;;;;19.45;100.00;100450.31;5041690;28;20028;-60
2022/09/06 10:02:28;;;;;;;2.03;0.45;;;;;;;19.56;100.00;100462.81;5037094;28;20025;-54
2022/09/06 10:05:08;;;;;;;3.67;1.00;;;;;;;19.49;100.00;100466.75;5041502;28;20031;-62
2022/09/06 10:07:53;;;;;;;3.63;0.90;;;;;;;19.48;100.00;100473.22;5040458;28;20242;-59
2022/09/06 10:10:27;;;;;;;8.45;1.48;;;;;;;19.87;100.00;100459.69;5029246;28;20060;-60
2022/09/06 10:13:19;;;;;;;6.03;1.80;;;;;;;19.96;100.00;100467.06;5038953;28;20376;-53
2022/09/06 10:15:44;;;;;;;4.00;0.40;;;;;;;19.76;100.00;100456.09;5031038;28;20041;-59
2022/09/06 10:18:27;;;;;;;2.83;0.63;;;;;;;19.57;100.00;100456.38;5035059;28;20029;-56
2022/09/06 10:20:58;;;;;;;8.75;0.65;;;;;;;19.68;100.00;100441.22;5033633;28;20026;-59
2022/09/06 10:23:42;;;;;;;5.68;0.20;;;;;;;19.96;100.00;100447.44;5035154;28;20112;-50
2022/09/06 10:26:17;;;;;;;3.80;0.52;;;;;;;20.56;100.00;100449.03;5043444;28;20064;-59
2022/09/06 10:28:44;;;;;;;6.45;0.60;;;;;;;20.79;100.00;100433.59;5039711;28;20048;-57
2022/09/06 10:31:12;;;;;;;5.28;1.00;;;;;;;20.43;100.00;100444.06;5032016;28;20115;-60
2022/09/06 10:33:52;;;;;;;4.50;0.45;;;;;;;20.60;100.00;100443.94;5038841;28;20187;-62
2022/09/06 10:36:23;;;;;;;2.47;0.80;;;;;;;21.06;100.00;100442.34;5031259;28;20064;-58
2022/09/06 10:39:02;;;;;;;4.70;0.85;;;;;;;21.15;100.00;100420.31;5031040;28;20045;-57
2022/09/06 10:41:55;;;;;;;3.88;0.85;;;;;;;21.27;100.00;100420.88;5039735;28;20031;-59
2022/09/06 10:44:54;;;;;;;2.03;0.20;;;;;;;21.23;100.00;100427.88;5039870;28;20087;-60
2022/09/06 10:47:28;;;;;;;6.70;0.43;;;;;;;21.03;100.00;100423.19;5040692;28;20106;-61
2022/09/06 10:49:57;;;;;;;1.60;0.80;;;;;;;21.06;100.00;100426.19;5037004;28;20018;-61
2022/09/06 10:52:33;;;;;;;3.22;0.40;;;;;;;21.22;100.00;100400.13;5043470;28;20044;-58
2022/09/06 10:55:03;;;;;;;4.45;0.45;;;;;;;21.65;100.00;100400.00;5029027;28;20025;-58
2022/09/06 10:57:36;;;;;;;3.90;0.45;;;;;;;21.90;100.00;100405.44;5033638;28;20107;-57
2022/09/06 11:00:13;;;;;;;4.32;0.22;;;;;;;22.22;100.00;100393.59;5034723;28;20049;-60
2022/09/06 11:02:57;;;;;;;4.80;0.73;;;;;;;22.20;100.00;100379.56;5041197;28;20071;-61
2022/09/06 11:05:28;;;;;;;2.80;1.00;;;;;;;21.88;100.00;100388.72;5037572;28;20040;-61
2022/09/06 11:08:12;;;;;;;12.80;0.85;;;;;;;21.53;100.00;100382.19;5034491;28;20479;-58
2022/09/06 11:10:44;;;;;;;4.35;0.73;;;;;;;21.25;100.00;100385.31;5032342;28;20029;-62
2022/09/06 11:13:19;;;;;;;3.05;0.43;;;;;;;21.05;100.00;100381.44;5038306;28;20493;-56
2022/09/06 11:16:01;;;;;;;3.80;0.55;;;;;;;20.93;100.00;100378.13;5043887;28;20045;-60
2022/09/06 11:18:45;;;;;;;8.20;0.55;;;;;;;21.04;100.00;100374.44;5038390;28;20025;-62
2022/09/06 11:21:29;;;;;;;7.80;0.70;;;;;;;21.13;100.00;100366.66;5049408;28;20120;-62
2022/09/06 11:24:14;;;;;;;3.63;0.63;;;;;;;21.09;100.00;100369.06;5043452;28;20032;-58
2022/09/06 11:27:12;;;;;;;1.75;0.75;;;;;;;21.02;100.00;100365.78;5040830;28;20028;-57
2022/09/06 11:29:41;;;;;;;2.10;0.22;;;;;;;20.91;100.00;100364.13;5036180;28;20030;-56